Time;durP1;ratioP1;P1;durP2;ratioP2;P2;SDS_P1;SDS_P2;PMS_P1;PMS_P2;Temp;Humidity;BMP_temperature;BMP_pressure;BME280_temperature;BME280_humidity;BME280_pressure;Samples;Min_cycle;Max_cycle;Signal;HPM_P1;HPM_P2
2023/07/09 00:00:56;;;;;;;10.57;3.22;;;;;;;;;;5088889;28;20169;-76
2023/07/09 00:03:22;;;;;;;4.85;2.65;;;;;;;;;;5090654;28;20062;-76
2023/07/09 00:05:49;;;;;;;10.57;3.38;;;;;;;;;;5092695;28;20043;-75
2023/07/09 00:08:28;;;;;;;8.88;2.92;;;;;;;;;;5093042;28;20039;-74
2023/07/09 00:10:55;;;;;;;12.73;3.30;;;;;;;;;;5093318;28;20070;-75
2023/07/09 00:13:21;;;;;;;9.95;3.05;;;;;;;;;;5095494;28;20020;-75
2023/07/09 00:15:48;;;;;;;7.72;2.70;;;;;;;;;;5096810;28;20035;-74
2023/07/09 00:18:14;;;;;;;8.45;2.80;;;;;;;;;;5095946;28;20081;-75
2023/07/09 00:20:43;;;;;;;10.50;3.15;;;;;;;;;;5094892;28;20029;-74
2023/07/09 00:23:09;;;;;;;9.07;2.83;;;;;;;;;;5094060;28;20103;-77
2023/07/09 00:25:35;;;;;;;7.60;2.95;;;;;;;;;;5094117;28;20048;-74
2023/07/09 00:28:02;;;;;;;8.07;2.95;;;;;;;;;;5092697;28;20024;-75
2023/07/09 00:30:28;;;;;;;9.93;2.92;;;;;;;;;;5092168;28;20032;-75
2023/07/09 00:32:54;;;;;;;10.95;2.97;;;;;;;;;;5091860;28;20027;-75
2023/07/09 00:35:20;;;;;;;8.43;3.50;;;;;;;;;;5092009;28;20020;-75
2023/07/09 00:37:47;;;;;;;7.88;3.03;;;;;;;;;;5092016;28;20020;-75
2023/07/09 00:40:19;;;;;;;9.52;3.30;;;;;;;;;;5092062;28;20016;-75
2023/07/09 00:42:46;;;;;;;8.13;3.45;;;;;;;;;;5091608;28;20047;-75
2023/07/09 00:45:39;;;;;;;8.38;2.95;;;;;;;;;;5091984;28;20065;-74
2023/07/09 00:48:12;;;;;;;6.20;2.90;;;;;;;;;;5090660;28;20036;-75
2023/07/09 00:50:46;;;;;;;7.45;3.03;;;;;;;;;;5091739;28;20020;-74
2023/07/09 00:53:17;;;;;;;12.60;2.45;;;;;;;;;;5090144;28;20040;-74
2023/07/09 00:55:45;;;;;;;9.30;3.08;;;;;;;;;;5093040;28;20020;-75
2023/07/09 00:58:15;;;;;;;9.77;2.65;;;;;;;;;;5098159;28;20100;-73
2023/07/09 01:00:46;;;;;;;5.95;2.60;;;;;;;;;;5097058;28;20543;-75
2023/07/09 01:03:16;;;;;;;5.40;2.65;;;;;;;;;;5097329;28;20024;-75
2023/07/09 01:05:43;;;;;;;6.18;2.67;;;;;;;;;;5096766;28;20313;-74
2023/07/09 01:08:10;;;;;;;5.70;2.42;;;;;;;;;;5092988;28;20042;-74
2023/07/09 01:10:36;;;;;;;11.57;2.88;;;;;;;;;;5091367;28;20066;-75
2023/07/09 01:13:02;;;;;;;12.15;3.10;;;;;;;;;;5091107;28;20031;-74
2023/07/09 01:15:28;;;;;;;6.70;2.60;;;;;;;;;;5091368;28;20031;-74
2023/07/09 01:17:54;;;;;;;11.82;3.35;;;;;;;;;;5091432;28;20028;-75
2023/07/09 01:20:21;;;;;;;8.93;2.85;;;;;;;;;;5091443;28;20024;-74
2023/07/09 01:22:50;;;;;;;6.15;2.72;;;;;;;;;;5091422;28;20024;-74
2023/07/09 01:25:17;;;;;;;9.10;3.15;;;;;;;;;;5090638;28;20028;-74
2023/07/09 01:27:45;;;;;;;12.77;3.10;;;;;;;;;;5091338;28;20027;-75
2023/07/09 01:30:22;;;;;;;8.88;2.83;;;;;;;;;;5091436;28;20472;-74
2023/07/09 01:32:49;;;;;;;6.50;2.88;;;;;;;;;;5093027;28;20028;-75
2023/07/09 01:35:17;;;;;;;8.85;3.08;;;;;;;;;;5096907;28;20047;-73
2023/07/09 01:37:43;;;;;;;9.38;2.60;;;;;;;;;;5095650;28;20031;-74
2023/07/09 01:40:10;;;;;;;7.20;3.25;;;;;;;;;;5095644;28;20052;-74
2023/07/09 01:42:38;;;;;;;8.88;2.88;;;;;;;;;;5095393;28;20396;-73
2023/07/09 01:45:05;;;;;;;11.07;3.03;;;;;;;;;;5095842;28;20058;-74
2023/07/09 01:47:31;;;;;;;5.47;3.10;;;;;;;;;;5095501;28;20048;-73
2023/07/09 01:49:57;;;;;;;9.82;2.90;;;;;;;;;;5095564;28;20454;-74
2023/07/09 01:52:24;;;;;;;6.68;3.20;;;;;;;;;;5095046;28;20017;-74
2023/07/09 01:54:50;;;;;;;5.07;2.50;;;;;;;;;;5095269;28;20030;-74
2023/07/09 01:57:19;;;;;;;11.98;3.10;;;;;;;;;;5095489;28;20036;-74
2023/07/09 01:59:46;;;;;;;7.13;2.95;;;;;;;;;;5095220;28;20394;-74
2023/07/09 02:02:18;;;;;;;8.60;3.40;;;;;;;;;;5094989;28;20020;-74
2023/07/09 02:04:45;;;;;;;10.85;3.05;;;;;;;;;;5095517;28;20028;-74
2023/07/09 02:07:11;;;;;;;8.25;3.58;;;;;;;;;;5095115;28;20031;-74
2023/07/09 02:09:37;;;;;;;9.07;2.90;;;;;;;;;;5094944;28;20103;-74
2023/07/09 02:12:03;;;;;;;8.73;3.20;;;;;;;;;;5094831;28;20103;-73
2023/07/09 02:14:29;;;;;;;8.18;3.33;;;;;;;;;;5094757;28;20016;-75
2023/07/09 02:16:55;;;;;;;14.90;3.33;;;;;;;;;;5095089;28;20024;-75
2023/07/09 02:19:21;;;;;;;8.73;3.35;;;;;;;;;;5094194;28;20016;-75
2023/07/09 02:21:47;;;;;;;9.73;5.15;;;;;;;;;;5091097;28;20035;-76
2023/07/09 02:24:13;;;;;;;5.82;3.80;;;;;;;;;;5095081;28;20437;-74
2023/07/09 02:26:39;;;;;;;7.80;3.83;;;;;;;;;;5094630;28;20028;-75
2023/07/09 02:29:05;;;;;;;10.70;4.57;;;;;;;;;;5094690;28;20077;-75
2023/07/09 02:31:33;;;;;;;14.52;5.10;;;;;;;;;;5093933;28;20103;-75
2023/07/09 02:33:59;;;;;;;6.90;3.78;;;;;;;;;;5093809;28;20024;-75
2023/07/09 02:36:25;;;;;;;9.55;3.78;;;;;;;;;;5094293;28;20024;-75
2023/07/09 02:38:51;;;;;;;6.18;3.88;;;;;;;;;;5094435;28;20021;-76
2023/07/09 02:41:17;;;;;;;8.23;3.55;;;;;;;;;;5095126;28;20064;-75
2023/07/09 02:43:43;;;;;;;14.15;4.13;;;;;;;;;;5093413;28;20071;-75
2023/07/09 02:46:09;;;;;;;11.10;3.30;;;;;;;;;;5094510;28;20030;-74
2023/07/09 02:48:35;;;;;;;7.88;3.55;;;;;;;;;;5094517;28;20101;-75
2023/07/09 02:51:01;;;;;;;9.30;3.63;;;;;;;;;;5093926;28;20035;-75
2023/07/09 02:53:28;;;;;;;11.68;3.60;;;;;;;;;;5093560;28;20478;-75
2023/07/09 02:55:54;;;;;;;8.40;3.70;;;;;;;;;;5094260;28;20024;-77
2023/07/09 02:58:20;;;;;;;8.07;3.47;;;;;;;;;;5094200;28;20405;-74
2023/07/09 03:00:51;;;;;;;10.82;3.45;;;;;;;;;;5093811;28;20031;-75
2023/07/09 03:03:18;;;;;;;10.75;3.47;;;;;;;;;;5093295;28;20316;-77
2023/07/09 03:05:45;;;;;;;8.73;3.30;;;;;;;;;;5093660;28;20493;-76
2023/07/09 03:08:11;;;;;;;10.32;3.90;;;;;;;;;;5093560;28;20390;-74
2023/07/09 03:10:37;;;;;;;9.18;3.97;;;;;;;;;;5093384;28;20047;-74
2023/07/09 03:13:03;;;;;;;11.85;3.80;;;;;;;;;;5092671;28;20092;-75
2023/07/09 03:15:29;;;;;;;5.47;3.65;;;;;;;;;;5093296;28;20478;-74
2023/07/09 03:17:55;;;;;;;10.32;3.75;;;;;;;;;;5093323;28;20077;-74
2023/07/09 03:20:21;;;;;;;10.13;4.00;;;;;;;;;;5093391;28;20027;-75
2023/07/09 03:22:47;;;;;;;9.88;3.78;;;;;;;;;;5092512;28;20104;-74
2023/07/09 03:25:13;;;;;;;9.80;3.67;;;;;;;;;;5093355;28;20032;-73
2023/07/09 03:27:39;;;;;;;11.32;3.50;;;;;;;;;;5093154;28;20095;-74
2023/07/09 03:30:06;;;;;;;6.40;3.42;;;;;;;;;;5093014;28;20442;-75
2023/07/09 03:32:32;;;;;;;6.78;3.80;;;;;;;;;;5092230;28;20098;-73
2023/07/09 03:34:57;;;;;;;5.35;3.10;;;;;;;;;;5092827;28;20128;-74
2023/07/09 03:37:23;;;;;;;5.88;3.13;;;;;;;;;;5092911;28;20122;-74
2023/07/09 03:39:49;;;;;;;5.72;3.10;;;;;;;;;;5093019;28;20020;-74
2023/07/09 03:42:15;;;;;;;6.18;3.28;;;;;;;;;;5091255;28;20069;-73
2023/07/09 03:44:41;;;;;;;9.30;3.03;;;;;;;;;;5092815;28;20493;-73
2023/07/09 03:47:07;;;;;;;9.32;4.60;;;;;;;;;;5093210;28;20132;-74
2023/07/09 03:49:33;;;;;;;8.77;3.92;;;;;;;;;;5092929;28;20024;-73
2023/07/09 03:52:00;;;;;;;7.70;4.00;;;;;;;;;;5092405;28;20028;-74
2023/07/09 03:54:26;;;;;;;9.25;3.42;;;;;;;;;;5092883;28;20470;-74
2023/07/09 03:56:52;;;;;;;12.45;4.65;;;;;;;;;;5092606;28;20021;-77
2023/07/09 03:59:18;;;;;;;8.55;4.32;;;;;;;;;;5092913;28;20020;-75
2023/07/09 04:01:44;;;;;;;8.18;3.30;;;;;;;;;;5092502;28;20024;-73
2023/07/09 04:04:10;;;;;;;9.57;3.35;;;;;;;;;;5092566;28;20024;-73
2023/07/09 04:06:36;;;;;;;6.00;3.38;;;;;;;;;;5092571;28;20338;-73
2023/07/09 04:09:02;;;;;;;7.32;3.42;;;;;;;;;;5092773;28;20028;-74
2023/07/09 04:11:28;;;;;;;9.80;3.42;;;;;;;;;;5092192;28;20038;-73
2023/07/09 04:13:54;;;;;;;10.52;2.83;;;;;;;;;;5092150;28;20020;-74
2023/07/09 04:16:20;;;;;;;6.50;3.40;;;;;;;;;;5092307;28;20461;-74
2023/07/09 04:18:46;;;;;;;8.57;3.45;;;;;;;;;;5092373;28;20095;-74
2023/07/09 04:21:12;;;;;;;10.38;3.30;;;;;;;;;;5092245;28;20425;-74
2023/07/09 04:23:38;;;;;;;7.32;3.22;;;;;;;;;;5091932;28;20035;-75
2023/07/09 04:26:04;;;;;;;9.18;3.42;;;;;;;;;;5092087;28;20036;-74
2023/07/09 04:28:30;;;;;;;5.78;3.03;;;;;;;;;;5092044;28;20400;-73
2023/07/09 04:30:56;;;;;;;8.80;3.20;;;;;;;;;;5091879;28;20500;-74
2023/07/09 04:33:23;;;;;;;5.93;3.58;;;;;;;;;;5091918;28;20062;-73
2023/07/09 04:35:49;;;;;;;8.32;4.50;;;;;;;;;;5092003;28;20466;-74
2023/07/09 04:38:15;;;;;;;13.68;7.90;;;;;;;;;;5092210;28;20026;-73
2023/07/09 04:40:42;;;;;;;6.88;4.20;;;;;;;;;;5092112;28;20392;-74
2023/07/09 04:43:08;;;;;;;8.40;3.63;;;;;;;;;;5091687;28;20038;-73
2023/07/09 04:45:34;;;;;;;8.80;4.32;;;;;;;;;;5092037;28;20088;-73
2023/07/09 04:48:00;;;;;;;6.32;3.90;;;;;;;;;;5092044;28;20367;-73
2023/07/09 04:50:26;;;;;;;8.90;4.13;;;;;;;;;;5091704;28;20106;-74
2023/07/09 04:52:52;;;;;;;6.75;3.85;;;;;;;;;;5091480;28;20020;-74
2023/07/09 04:55:18;;;;;;;15.43;4.85;;;;;;;;;;5091791;28;20500;-73
2023/07/09 04:57:45;;;;;;;9.63;4.35;;;;;;;;;;5091916;28;20285;-73
2023/07/09 05:00:11;;;;;;;12.20;6.53;;;;;;;;;;5091726;28;20034;-75
2023/07/09 05:02:37;;;;;;;22.73;10.35;;;;;;;;;;5091789;28;20039;-75
2023/07/09 05:05:03;;;;;;;13.30;7.93;;;;;;;;;;5092307;28;20020;-76
2023/07/09 05:07:29;;;;;;;10.95;5.43;;;;;;;;;;5094717;28;20369;-74
2023/07/09 05:09:55;;;;;;;11.13;4.63;;;;;;;;;;5093694;28;20028;-73
2023/07/09 05:12:21;;;;;;;7.70;4.70;;;;;;;;;;5094402;28;20052;-73
2023/07/09 05:14:47;;;;;;;10.15;4.35;;;;;;;;;;5093769;28;20381;-71
2023/07/09 05:17:13;;;;;;;5.90;3.60;;;;;;;;;;5093536;28;20028;-73
2023/07/09 05:19:39;;;;;;;12.85;4.45;;;;;;;;;;5090205;28;20103;-73
2023/07/09 05:22:05;;;;;;;10.77;4.93;;;;;;;;;;5089645;28;20516;-73
2023/07/09 05:24:31;;;;;;;11.90;4.63;;;;;;;;;;5090421;28;20068;-72
2023/07/09 05:26:57;;;;;;;7.88;4.07;;;;;;;;;;5089842;28;20020;-73
2023/07/09 05:29:24;;;;;;;11.88;4.25;;;;;;;;;;5090374;28;20520;-72
2023/07/09 05:31:50;;;;;;;6.65;3.38;;;;;;;;;;5089691;28;20032;-72
2023/07/09 05:34:16;;;;;;;10.13;3.70;;;;;;;;;;5090429;28;20070;-73
2023/07/09 05:36:42;;;;;;;7.72;3.97;;;;;;;;;;5088894;28;20547;-72
2023/07/09 05:39:08;;;;;;;8.45;3.60;;;;;;;;;;5089505;28;20252;-73
2023/07/09 05:41:33;;;;;;;8.52;3.92;;;;;;;;;;5089768;28;20363;-74
2023/07/09 05:43:59;;;;;;;8.05;3.75;;;;;;;;;;5084256;28;20035;-74
2023/07/09 05:46:25;;;;;;;6.13;3.53;;;;;;;;;;5088865;28;20105;-72
2023/07/09 05:48:51;;;;;;;10.57;3.63;;;;;;;;;;5091003;28;20496;-73
2023/07/09 05:51:18;;;;;;;10.57;4.03;;;;;;;;;;5090779;28;20103;-73
2023/07/09 05:53:44;;;;;;;8.98;3.53;;;;;;;;;;5089061;28;20107;-72
2023/07/09 05:56:10;;;;;;;7.60;3.50;;;;;;;;;;5088016;28;20021;-73
2023/07/09 05:58:37;;;;;;;6.90;3.60;;;;;;;;;;5091121;28;20193;-71
2023/07/09 06:01:03;;;;;;;6.15;3.33;;;;;;;;;;5088442;28;20086;-72
2023/07/09 06:03:29;;;;;;;7.50;3.85;;;;;;;;;;5090506;28;20028;-74
2023/07/09 06:05:57;;;;;;;7.13;3.83;;;;;;;;;;5089806;28;20028;-73
2023/07/09 06:08:23;;;;;;;4.63;2.88;;;;;;;;;;5088888;28;20153;-72
2023/07/09 06:10:57;;;;;;;6.70;3.80;;;;;;;;;;5091012;28;20081;-71
2023/07/09 06:13:23;;;;;;;5.03;3.00;;;;;;;;;;5091399;28;20456;-74
2023/07/09 06:15:51;;;;;;;6.60;3.50;;;;;;;;;;5091066;28;20024;-71
2023/07/09 06:18:16;;;;;;;7.82;3.67;;;;;;;;;;5091990;28;20100;-73
2023/07/09 06:20:46;;;;;;;8.82;4.10;;;;;;;;;;5096467;28;20063;-78
2023/07/09 06:23:12;;;;;;;7.80;3.83;;;;;;;;;;5095859;28;20036;-76
2023/07/09 06:25:38;;;;;;;15.05;5.07;;;;;;;;;;5096050;28;20032;-75
2023/07/09 06:28:04;;;;;;;7.28;4.00;;;;;;;;;;5094947;28;20067;-74
2023/07/09 06:30:30;;;;;;;9.70;4.60;;;;;;;;;;5094835;28;20064;-75
2023/07/09 06:32:56;;;;;;;9.15;4.40;;;;;;;;;;5094134;28;20024;-73
2023/07/09 06:35:22;;;;;;;6.47;3.47;;;;;;;;;;5094871;28;20024;-76
2023/07/09 06:37:48;;;;;;;9.55;3.95;;;;;;;;;;5094656;28;20050;-75
2023/07/09 06:40:14;;;;;;;10.57;4.35;;;;;;;;;;5093070;28;20021;-74
2023/07/09 06:42:40;;;;;;;12.18;4.13;;;;;;;;;;5093972;28;20032;-75
2023/07/09 06:45:07;;;;;;;8.90;4.05;;;;;;;;;;5094529;28;20036;-75
2023/07/09 06:47:33;;;;;;;7.55;3.95;;;;;;;;;;5094509;28;20478;-76
2023/07/09 06:49:59;;;;;;;8.93;3.60;;;;;;;;;;5096582;28;20110;-76
2023/07/09 06:52:25;;;;;;;12.05;3.50;;;;;;;;;;5093801;28;20099;-74
2023/07/09 06:54:51;;;;;;;9.63;3.97;;;;;;;;;;5093862;28;20059;-73
2023/07/09 06:57:17;;;;;;;8.55;4.13;;;;;;;;;;5093996;28;20060;-73
2023/07/09 06:59:43;;;;;;;12.80;4.68;;;;;;;;;;5093939;28;20078;-74
2023/07/09 07:02:09;;;;;;;6.40;3.67;;;;;;;;;;5093376;28;20031;-73
2023/07/09 07:04:35;;;;;;;6.90;3.88;;;;;;;;;;5093844;28;20030;-73
2023/07/09 07:07:01;;;;;;;7.85;3.95;;;;;;;;;;5093737;28;20020;-75
2023/07/09 07:09:27;;;;;;;8.18;4.53;;;;;;;;;;5093989;28;20489;-74
2023/07/09 07:11:53;;;;;;;13.07;5.55;;;;;;;;;;5093423;28;20059;-76
2023/07/09 07:14:19;;;;;;;8.18;4.25;;;;;;;;;;5093807;28;20020;-74
2023/07/09 07:16:45;;;;;;;6.18;4.05;;;;;;;;;;5093921;28;20570;-74
2023/07/09 07:19:11;;;;;;;8.82;4.03;;;;;;;;;;5093754;28;20107;-73
2023/07/09 07:21:36;;;;;;;7.00;3.90;;;;;;;;;;5095018;28;20028;-73
2023/07/09 07:24:03;;;;;;;9.18;3.95;;;;;;;;;;5093243;28;20630;-74
2023/07/09 07:26:29;;;;;;;9.00;3.88;;;;;;;;;;5093627;28;20028;-75
2023/07/09 07:28:55;;;;;;;6.75;3.90;;;;;;;;;;5093339;28;20036;-75
2023/07/09 07:31:21;;;;;;;12.45;4.13;;;;;;;;;;5093376;28;20726;-76
2023/07/09 07:33:47;;;;;;;9.35;4.70;;;;;;;;;;5093642;28;20074;-75
2023/07/09 07:36:13;;;;;;;9.07;4.55;;;;;;;;;;5093659;28;20017;-75
2023/07/09 07:38:39;;;;;;;10.05;3.92;;;;;;;;;;5093618;28;20024;-76
2023/07/09 07:41:05;;;;;;;9.20;4.10;;;;;;;;;;5093316;28;20028;-75
2023/07/09 07:43:31;;;;;;;13.93;4.03;;;;;;;;;;5092878;28;20400;-76
2023/07/09 07:45:57;;;;;;;6.40;3.65;;;;;;;;;;5093656;28;20115;-74
2023/07/09 07:48:23;;;;;;;16.23;4.07;;;;;;;;;;5093258;28;20107;-75
2023/07/09 07:50:50;;;;;;;7.10;3.90;;;;;;;;;;5093041;28;20027;-75
2023/07/09 07:53:16;;;;;;;7.28;3.75;;;;;;;;;;5092854;28;20445;-74
2023/07/09 07:55:42;;;;;;;7.90;3.95;;;;;;;;;;5097311;28;20024;-75
2023/07/09 07:58:11;;;;;;;16.42;3.58;;;;;;;;;;5093140;28;20024;-74
2023/07/09 08:00:38;;;;;;;8.60;3.97;;;;;;;;;;5092925;28;20024;-74
2023/07/09 08:03:04;;;;;;;10.15;4.05;;;;;;;;;;5092400;28;20096;-74
2023/07/09 08:05:30;;;;;;;6.68;3.97;;;;;;;;;;5092818;28;20043;-74
2023/07/09 08:07:56;;;;;;;8.15;5.03;;;;;;;;;;5092894;28;20043;-74
2023/07/09 08:10:22;;;;;;;7.03;3.80;;;;;;;;;;5097283;28;20031;-74
2023/07/09 08:12:48;;;;;;;8.90;4.00;;;;;;;;;;5094651;28;20077;-73
2023/07/09 08:15:14;;;;;;;8.27;3.95;;;;;;;;;;5099453;28;20026;-74
2023/07/09 08:17:40;;;;;;;10.93;4.25;;;;;;;;;;5089189;28;20388;-74
2023/07/09 08:20:07;;;;;;;7.03;3.92;;;;;;;;;;5090316;28;20097;-74
2023/07/09 08:22:33;;;;;;;9.52;4.00;;;;;;;;;;5097281;28;20041;-74
2023/07/09 08:24:59;;;;;;;7.28;4.20;;;;;;;;;;5086799;28;20135;-74
2023/07/09 08:27:25;;;;;;;8.65;4.03;;;;;;;;;;5089959;28;20117;-74
2023/07/09 08:29:51;;;;;;;15.45;4.53;;;;;;;;;;5090504;28;20020;-73
2023/07/09 08:32:17;;;;;;;9.00;4.70;;;;;;;;;;5086526;28;20036;-75
2023/07/09 08:34:43;;;;;;;11.52;4.30;;;;;;;;;;5085102;28;20401;-74
2023/07/09 08:37:09;;;;;;;14.48;4.82;;;;;;;;;;5080328;28;20039;-74
2023/07/09 08:39:35;;;;;;;10.18;4.68;;;;;;;;;;5079606;28;20022;-74
2023/07/09 08:42:07;;;;;;;7.97;4.80;;;;;;;;;;5074261;28;20031;-74
2023/07/09 08:44:38;;;;;;;9.55;4.50;;;;;;;;;;5083112;28;20115;-74
2023/07/09 08:47:11;;;;;;;9.63;4.35;;;;;;;;;;5079859;28;20032;-73
2023/07/09 08:49:49;;;;;;;6.45;3.92;;;;;;;;;;5083339;28;20044;-75
2023/07/09 08:52:25;;;;;;;9.15;4.18;;;;;;;;;;5080480;28;20077;-74
2023/07/09 08:54:51;;;;;;;9.10;4.55;;;;;;;;;;5085230;28;20016;-74
2023/07/09 08:57:19;;;;;;;11.10;4.32;;;;;;;;;;5081740;28;20024;-74
2023/07/09 08:59:46;;;;;;;8.80;4.15;;;;;;;;;;5086236;28;20052;-74
2023/07/09 09:02:33;;;;;;;8.57;4.55;;;;;;;;;;5078135;28;20025;-74
2023/07/09 09:04:59;;;;;;;10.07;4.13;;;;;;;;;;5080312;28;20038;-74
2023/07/09 09:07:44;;;;;;;6.65;4.30;;;;;;;;;;5084648;28;20034;-74
2023/07/09 09:10:33;;;;;;;6.03;4.00;;;;;;;;;;5078558;28;20028;-74
2023/07/09 09:13:04;;;;;;;7.72;4.30;;;;;;;;;;5086659;28;20105;-74
2023/07/09 09:15:31;;;;;;;8.32;4.05;;;;;;;;;;5089141;28;20020;-73
2023/07/09 09:17:59;;;;;;;14.23;4.65;;;;;;;;;;5089104;28;20022;-74
2023/07/09 09:20:26;;;;;;;8.52;4.32;;;;;;;;;;5088272;28;20103;-74
2023/07/09 09:22:55;;;;;;;9.30;4.90;;;;;;;;;;5091349;28;20026;-74
2023/07/09 09:25:31;;;;;;;9.52;4.30;;;;;;;;;;5090633;28;20023;-74
2023/07/09 09:27:59;;;;;;;10.00;4.43;;;;;;;;;;5092407;28;20028;-77
2023/07/09 09:30:25;;;;;;;13.18;4.45;;;;;;;;;;5091661;28;20028;-73
2023/07/09 09:32:58;;;;;;;10.00;4.82;;;;;;;;;;5091713;28;20084;-74
2023/07/09 09:35:29;;;;;;;11.52;4.32;;;;;;;;;;5092126;28;20144;-75
2023/07/09 09:37:56;;;;;;;11.43;4.60;;;;;;;;;;5093842;28;20020;-74
2023/07/09 09:40:23;;;;;;;7.70;4.57;;;;;;;;;;5096953;28;20039;-74
2023/07/09 09:42:50;;;;;;;10.65;4.72;;;;;;;;;;5096693;28;20035;-74
2023/07/09 09:45:19;;;;;;;6.38;4.50;;;;;;;;;;5093966;28;20028;-75
2023/07/09 09:47:49;;;;;;;9.07;4.78;;;;;;;;;;5095253;28;20019;-73
2023/07/09 09:50:19;;;;;;;9.13;4.60;;;;;;;;;;5113565;28;20049;-74
2023/07/09 09:52:45;;;;;;;6.93;4.32;;;;;;;;;;5111776;28;20036;-74
2023/07/09 09:55:13;;;;;;;5.95;4.05;;;;;;;;;;5119392;28;20046;-74
2023/07/09 09:57:39;;;;;;;8.73;4.55;;;;;;;;;;5114231;28;20035;-76
2023/07/09 10:00:10;;;;;;;10.30;4.47;;;;;;;;;;5109487;28;20059;-75
2023/07/09 10:02:42;;;;;;;6.30;4.28;;;;;;;;;;5104367;28;20028;-75
2023/07/09 10:05:12;;;;;;;7.13;4.07;;;;;;;;;;5097364;28;20035;-76
2023/07/09 10:07:43;;;;;;;7.93;4.22;;;;;;;;;;5096173;28;20028;-74
2023/07/09 10:10:13;;;;;;;6.82;4.40;;;;;;;;;;5096298;28;20024;-75
2023/07/09 10:12:44;;;;;;;10.75;4.55;;;;;;;;;;5094007;28;20043;-75
2023/07/09 10:15:26;;;;;;;9.55;5.07;;;;;;;;;;5095027;28;20016;-74
2023/07/09 10:17:58;;;;;;;8.77;4.82;;;;;;;;;;5095359;28;20016;-74
2023/07/09 10:20:26;;;;;;;10.10;4.10;;;;;;;;;;5095126;28;20048;-74
2023/07/09 10:23:03;;;;;;;13.68;4.65;;;;;;;;;;5094854;28;20024;-74
2023/07/09 10:25:48;;;;;;;11.27;4.97;;;;;;;;;;5085040;28;20028;-74
2023/07/09 10:28:14;;;;;;;11.32;4.32;;;;;;;;;;5083070;28;20021;-74
2023/07/09 10:31:01;;;;;;;7.32;4.50;;;;;;;;;;5079595;28;20032;-74
2023/07/09 10:33:27;;;;;;;6.70;4.35;;;;;;;;;;5083175;28;20020;-74
2023/07/09 10:35:58;;;;;;;8.30;5.07;;;;;;;;;;5086679;28;20061;-72
2023/07/09 10:38:33;;;;;;;11.30;4.88;;;;;;;;;;5079809;28;20055;-74
2023/07/09 10:41:00;;;;;;;5.78;4.53;;;;;;;;;;5079515;28;20112;-74
2023/07/09 10:43:42;;;;;;;6.50;4.75;;;;;;;;;;5077706;28;20379;-75
2023/07/09 10:46:13;;;;;;;8.30;4.55;;;;;;;;;;5078623;28;20122;-75
2023/07/09 10:48:41;;;;;;;10.77;4.47;;;;;;;;;;5079758;28;20034;-74
2023/07/09 10:51:19;;;;;;;10.05;4.20;;;;;;;;;;5082040;28;20024;-74
2023/07/09 10:53:56;;;;;;;13.07;5.13;;;;;;;;;;5074688;28;20017;-74
2023/07/09 10:56:25;;;;;;;6.95;4.72;;;;;;;;;;5084604;28;20099;-74
2023/07/09 10:59:11;;;;;;;9.88;4.07;;;;;;;;;;5085199;28;20028;-73
2023/07/09 11:01:42;;;;;;;7.85;4.13;;;;;;;;;;5082718;28;20029;-74
2023/07/09 11:04:12;;;;;;;10.95;4.55;;;;;;;;;;5087547;28;20055;-74
2023/07/09 11:06:42;;;;;;;12.65;4.90;;;;;;;;;;5081288;28;20020;-75
2023/07/09 11:09:15;;;;;;;11.82;4.80;;;;;;;;;;5078205;28;20024;-74
2023/07/09 11:11:43;;;;;;;15.83;4.90;;;;;;;;;;5078889;28;20035;-74
2023/07/09 11:14:16;;;;;;;8.65;4.43;;;;;;;;;;5078356;28;20028;-75
2023/07/09 11:16:43;;;;;;;8.05;5.00;;;;;;;;;;5079073;28;20494;-75
2023/07/09 11:19:19;;;;;;;10.52;4.32;;;;;;;;;;5081791;28;20096;-75
2023/07/09 11:22:02;;;;;;;11.52;4.93;;;;;;;;;;5077050;28;20024;-74
2023/07/09 11:24:35;;;;;;;11.55;4.93;;;;;;;;;;5082703;28;20032;-74
2023/07/09 11:27:02;;;;;;;9.55;4.72;;;;;;;;;;5088499;28;20031;-76
2023/07/09 11:29:29;;;;;;;8.82;4.40;;;;;;;;;;5087818;28;20047;-74
2023/07/09 11:31:58;;;;;;;9.93;4.50;;;;;;;;;;5088498;28;20017;-73
2023/07/09 11:34:27;;;;;;;11.43;4.88;;;;;;;;;;5079065;28;20017;-74
2023/07/09 11:37:01;;;;;;;10.93;4.22;;;;;;;;;;5078690;28;20029;-73
2023/07/09 11:39:42;;;;;;;6.60;4.30;;;;;;;;;;5076902;28;20091;-74
2023/07/09 11:42:27;;;;;;;9.85;5.15;;;;;;;;;;5073245;28;20093;-75
2023/07/09 11:45:02;;;;;;;9.15;4.35;;;;;;;;;;5073137;28;20036;-74
2023/07/09 11:47:31;;;;;;;9.73;4.18;;;;;;;;;;5072827;28;20113;-75
2023/07/09 11:50:01;;;;;;;8.05;4.80;;;;;;;;;;5072697;28;20028;-75
2023/07/09 11:52:36;;;;;;;6.15;4.55;;;;;;;;;;5072461;28;20078;-80
2023/07/09 11:55:13;;;;;;;11.60;6.32;;;;;;;;;;5072913;28;20017;-75
2023/07/09 11:57:39;;;;;;;11.88;6.53;;;;;;;;;;5072778;28;20027;-74
2023/07/09 12:00:06;;;;;;;8.25;5.18;;;;;;;;;;5073138;28;20021;-74
2023/07/09 12:02:34;;;;;;;11.75;5.28;;;;;;;;;;5072456;28;20029;-74
2023/07/09 12:05:01;;;;;;;12.38;4.50;;;;;;;;;;5072669;28;20367;-74
2023/07/09 12:07:27;;;;;;;7.65;4.32;;;;;;;;;;5072513;28;20024;-76
2023/07/09 12:09:54;;;;;;;15.27;4.63;;;;;;;;;;5072802;28;20028;-75
2023/07/09 12:12:21;;;;;;;10.75;4.43;;;;;;;;;;5072575;28;20032;-74
2023/07/09 12:14:47;;;;;;;9.93;5.10;;;;;;;;;;5072857;28;20024;-75
2023/07/09 12:17:13;;;;;;;13.00;4.80;;;;;;;;;;5072073;28;20091;-75
2023/07/09 12:19:40;;;;;;;10.60;5.28;;;;;;;;;;5072779;28;20031;-74
2023/07/09 12:22:10;;;;;;;7.57;4.97;;;;;;;;;;5072414;28;20508;-75
2023/07/09 12:24:37;;;;;;;11.45;4.88;;;;;;;;;;5072763;28;20158;-75
2023/07/09 12:27:04;;;;;;;9.02;5.03;;;;;;;;;;5072587;28;20024;-75
2023/07/09 12:29:34;;;;;;;15.77;5.20;;;;;;;;;;5073503;28;20031;-75
2023/07/09 12:32:03;;;;;;;5.88;4.47;;;;;;;;;;5072891;28;20397;-75
2023/07/09 12:34:31;;;;;;;12.38;4.75;;;;;;;;;;5072636;28;20025;-74
2023/07/09 12:36:58;;;;;;;12.70;5.10;;;;;;;;;;5072365;28;20027;-75
2023/07/09 12:39:26;;;;;;;10.68;4.82;;;;;;;;;;5072227;28;20045;-76
2023/07/09 12:41:55;;;;;;;7.60;4.68;;;;;;;;;;5071797;28;20029;-74
2023/07/09 12:44:22;;;;;;;10.93;4.88;;;;;;;;;;5072865;28;20021;-74
2023/07/09 12:46:50;;;;;;;7.43;5.00;;;;;;;;;;5072632;28;20036;-75
2023/07/09 12:49:30;;;;;;;13.32;5.22;;;;;;;;;;5072686;28;20047;-78
2023/07/09 12:52:01;;;;;;;8.15;5.10;;;;;;;;;;5072500;28;20512;-75
2023/07/09 12:54:28;;;;;;;10.05;4.70;;;;;;;;;;5072400;28;20119;-75
2023/07/09 12:56:55;;;;;;;10.52;5.60;;;;;;;;;;5072212;28;20060;-75
2023/07/09 12:59:22;;;;;;;11.90;5.20;;;;;;;;;;5072138;28;20020;-75
2023/07/09 13:01:49;;;;;;;10.40;4.88;;;;;;;;;;5071088;28;20028;-75
2023/07/09 13:04:16;;;;;;;8.68;6.05;;;;;;;;;;5073573;28;20021;-76
2023/07/09 13:06:43;;;;;;;10.05;5.40;;;;;;;;;;5071899;28;20390;-74
2023/07/09 13:09:14;;;;;;;12.00;5.05;;;;;;;;;;5072406;28;20044;-75
2023/07/09 13:11:40;;;;;;;11.98;5.35;;;;;;;;;;5073652;28;20071;-75
2023/07/09 13:14:15;;;;;;;10.45;5.00;;;;;;;;;;5073951;28;20025;-76
2023/07/09 13:16:41;;;;;;;11.90;5.05;;;;;;;;;;5079316;28;20019;-74
2023/07/09 13:19:07;;;;;;;11.85;5.30;;;;;;;;;;5093854;28;20020;-75
2023/07/09 13:21:33;;;;;;;8.20;5.20;;;;;;;;;;5092800;28;20397;-74
2023/07/09 13:23:59;;;;;;;8.68;5.00;;;;;;;;;;5092423;28;20024;-76
2023/07/09 13:26:25;;;;;;;9.40;6.22;;;;;;;;;;5092854;28;20103;-75
2023/07/09 13:28:51;;;;;;;6.65;5.35;;;;;;;;;;5095699;28;20032;-76
2023/07/09 13:31:19;;;;;;;13.93;5.15;;;;;;;;;;5095576;28;20031;-76
2023/07/09 13:33:51;;;;;;;10.82;4.80;;;;;;;;;;5095649;28;20024;-76
2023/07/09 13:36:17;;;;;;;8.02;5.15;;;;;;;;;;5095335;28;20016;-75
2023/07/09 13:38:43;;;;;;;10.68;5.60;;;;;;;;;;5095716;28;20012;-76
2023/07/09 13:41:17;;;;;;;9.35;5.95;;;;;;;;;;5096472;28;20028;-76
2023/07/09 13:43:44;;;;;;;11.43;6.07;;;;;;;;;;5096283;28;20059;-75
2023/07/09 13:46:10;;;;;;;9.73;5.32;;;;;;;;;;5096954;28;20028;-75
2023/07/09 13:48:37;;;;;;;6.97;4.95;;;;;;;;;;5097389;28;20027;-75
2023/07/09 13:51:13;;;;;;;8.48;5.25;;;;;;;;;;5097692;28;20024;-75
2023/07/09 13:53:39;;;;;;;9.43;5.47;;;;;;;;;;5098528;28;20035;-75
2023/07/09 13:56:05;;;;;;;10.85;5.05;;;;;;;;;;5098925;28;20020;-75
2023/07/09 13:58:31;;;;;;;7.97;4.63;;;;;;;;;;5096345;28;20072;-75
2023/07/09 14:01:04;;;;;;;7.95;5.13;;;;;;;;;;5095479;28;20414;-75
2023/07/09 14:03:31;;;;;;;7.25;5.25;;;;;;;;;;5096062;28;20127;-75
2023/07/09 14:05:57;;;;;;;8.30;4.70;;;;;;;;;;5096129;28;20028;-76
2023/07/09 14:08:23;;;;;;;7.78;5.20;;;;;;;;;;5109213;28;20031;-76
2023/07/09 14:10:49;;;;;;;10.07;5.20;;;;;;;;;;5115315;28;20036;-75
2023/07/09 14:13:21;;;;;;;12.82;5.75;;;;;;;;;;5104151;28;20363;-76
2023/07/09 14:15:47;;;;;;;11.75;5.30;;;;;;;;;;5105842;28;20028;-76
2023/07/09 14:18:14;;;;;;;12.18;5.78;;;;;;;;;;5103795;28;20047;-75
2023/07/09 14:20:40;;;;;;;21.35;5.80;;;;;;;;;;5101179;28;20079;-76
2023/07/09 14:23:06;;;;;;;7.85;5.07;;;;;;;;;;5112030;28;20008;-74
2023/07/09 14:25:32;;;;;;;7.95;4.95;;;;;;;;;;5119412;28;20034;-73
2023/07/09 14:27:58;;;;;;;10.43;5.72;;;;;;;;;;5118742;28;20020;-74
2023/07/09 14:30:25;;;;;;;9.90;5.40;;;;;;;;;;5116705;28;20024;-74
2023/07/09 14:32:52;;;;;;;8.50;5.30;;;;;;;;;;5111004;28;20032;-76
2023/07/09 14:35:18;;;;;;;6.93;4.95;;;;;;;;;;5095935;28;20375;-76
2023/07/09 14:37:45;;;;;;;10.05;5.45;;;;;;;;;;5094477;28;20489;-75
2023/07/09 14:40:11;;;;;;;11.52;6.15;;;;;;;;;;5093869;28;20024;-76
2023/07/09 14:42:38;;;;;;;10.68;5.13;;;;;;;;;;5094745;28;20474;-75